• Join FlightAware (Why Join?)
  • Login
  • US Flag 
08:45AM EDT


 

Airport Tracker/Info


-or-


 

Live Flight TrackerFlight Track Log ✈ UAL4234 ✈ 27-Apr-2013 ✈ KIAH - KRDU

Flight Track Log - Related Links

Times and Time Zones

All times are in EDT time to prevent confusion due to time zone crossing. See the UAL4234 flight status page for this flight to view local times or setup timezone preferences in your user account.

Time Position Orientation Groundspeed Altitude Reporting Facility
EDT Latitude Longitude Course Direction KTS MPH feet Rate Location/Type
05:02PM 29.9639 -95.3458 97° East 167 192 600  Level Houston Center
05:03PM 29.9511 -95.3883 251° West 239 275 3,000 1,920 Climbing Houston Center
05:04PM 29.9717 -95.3908 354° North 258 297 3,600 1,080 Climbing Houston Center
05:04PM 30.0119 -95.3642 30° Northeast 255 293 4,100 1,740 Climbing Houston Center
05:05PM 30.0422 -95.3397 35° Northeast 252 290 5,400 2,460 Climbing Houston Center
05:05PM 30.0747 -95.3156 33° Northeast 275 316 6,700 2,280 Climbing Houston Center
05:06PM 29.9117 -94.8072 95° East  Level FlightAware Approximate
05:06PM 30.1067 -95.2892 36° Northeast 274 315 7,800  Level Houston Center
05:07PM 29.9007 -94.6746 95° East  Level FlightAware Approximate
05:07PM 30.1461 -95.2147 58° Northeast 292 336 10,700  Level Houston Center
05:08PM 29.8863 -94.5425 97° East  Level FlightAware Approximate
05:08PM 30.1233 -95.1181 105° East 309 356 12,200  Level Houston Center
05:09PM 30.1103 -95.0117 98° East 331 381 14,700 2,040 Climbing Houston Center
05:10PM 30.1011 -94.9072 96° East 328 377 16,500 1,440 Climbing Houston Center
05:11PM 30.0936 -94.7936 94° East 349 402 17,700 1,560 Climbing Houston Center
05:13PM 30.1097 -94.5333 86° East 372 428 21,400 1,440 Climbing Houston Center
05:14PM 30.1247 -94.4122 82° East 389 448 22,300 720 Climbing Houston Center
05:15PM 30.1406 -94.2797 82° East 411 473 23,000 720 Climbing Houston Center
05:16PM 30.1578 -94.1403 82° East 435 501 23,900 1,200 Climbing Houston Center
05:17PM 30.1742 -94.0031 82° East 434 499 25,500 1,800 Climbing Houston Center
05:18PM 30.1933 -93.8436 82° East 421 484 27,600 1,740 Climbing Houston Center
05:19PM 30.2083 -93.7153 82° East 409 471 29,200 1,320 Climbing Houston Center
05:20PM 30.2225 -93.5881 83° East 407 468 30,400 1,140 Climbing Houston Center
05:21PM 30.2361 -93.4592 83° East 413 475 31,600 1,260 Climbing Houston Center
05:22PM 30.2553 -93.3042 82° East 415 478 33,100 1,260 Climbing Houston Center
05:23PM 30.2703 -93.1761 82° East 408 470 34,300 900 Climbing Houston Center
05:24PM 30.2847 -93.0472 83° East 408 470 35,000 300 Climbing Houston Center
05:25PM 30.2997 -92.9111 83° East 425 489 35,000  Level Houston Center
05:26PM 30.3172 -92.7653 82° East 450 518 35,000  Level Houston Center
05:27PM 30.3333 -92.6133 83° East 469 540 35,000  Level Houston Center
05:28PM 30.3508 -92.4569 83° East 486 559 35,000  Level Houston Center
05:29PM 30.3692 -92.2667 84° East 495 570 35,000  Level Houston Center
05:30PM 30.3861 -92.1083 83° East 497 572 35,000  Level Houston Center
05:32PM 30.4033 -91.9525 83° East 493 567 35,000  Level Houston Center
05:33PM 30.4189 -91.7953 83° East 494 568 35,000  Level Houston Center
05:34PM 30.4364 -91.6314 83° East 492 566 35,000  Level Houston Center
05:35PM 30.4522 -91.4728 83° East 496 571 35,000  Level Houston Center
05:36PM 30.4692 -91.3164 83° East 492 566 35,000  Level Houston Center
05:37PM 30.4853 -91.1586 83° East 494 568 35,000  Level Houston Center
05:38PM 30.5025 -90.9717 84° East 489 563 35,000  Level Houston Center
05:39PM 30.5181 -90.8156 83° East 487 560 35,000  Level Houston Center
05:40PM 30.5328 -90.6589 84° East 489 563 35,000  Level Houston Center
05:41PM 30.5464 -90.5042 84° East 485 558 35,000  Level Houston Center
05:42PM 30.5597 -90.3483 84° East 485 558 35,000  Level Houston Center
05:43PM 30.5742 -90.1931 84° East 483 556 35,000  Level Houston Center
05:44PM 30.5881 -90.0378 84° East 482 555 35,000  Level Houston Center
05:45PM 30.6028 -89.8817 84° East 482 555 35,000  Level Houston Center
05:46PM 30.6156 -89.7244 85° East 483 556 35,000  Level Houston Center
05:47PM 30.6294 -89.5694 84° East 480 552 35,000 240 Level Houston Center
05:48PM 30.6439 -89.3847 85° East 476 548 35,600 840 Climbing Houston Center
05:49PM 30.6567 -89.2339 84° East 468 539 36,800 660 Climbing Houston Center
05:50PM 30.6678 -89.0867 85° East 460 529 37,000 60 Climbing Houston Center
05:51PM 30.6803 -88.9358 84° East 468 539 37,000  Level Houston Center
05:52PM 30.6922 -88.7661 85° East 477 549 37,000  Level Houston Center
05:53PM 30.7044 -88.6114 85° East 482 555 37,000  Level Houston Center
05:54PM 30.7156 -88.4711 85° East 483 556 37,000 -60 Level Houston Center
05:55PM 30.7547 -88.3242 73° East 485 558 36,900  Descending Houston Center
05:56PM 30.8556 -88.1831 50° Northeast 476 548 37,000  Climbing Houston Center
05:57PM 30.9436 -88.0669 48° Northeast 479 551 37,000  Level Houston Center
05:58PM 31.0311 -87.9511 49° Northeast 478 550 37,000  Level Houston Center
05:59PM 31.1181 -87.8350 49° Northeast 474 545 37,000  Level Houston Center
06:00PM 31.2039 -87.7178 49° Northeast 475 547 37,000  Level Houston Center
06:01PM 31.2922 -87.5992 49° Northeast 477 549 37,000  Level Houston Center
06:02PM 31.3814 -87.4853 47° Northeast 472 543 37,000  Level Atlanta Center
06:03PM 31.4681 -87.3669 49° Northeast 472 543 37,000  Level Atlanta Center
06:04PM 31.5547 -87.2508 49° Northeast 472 543 37,000  Level Atlanta Center
06:05PM 31.6411 -87.1294 50° Northeast 472 543 37,000  Level Atlanta Center
06:06PM 31.7269 -87.0394 42° Northeast 466 536 37,000  Level Atlanta Center
06:07PM 31.8294 -86.9428 39° Northeast 455 524 37,000  Level Atlanta Center
06:08PM 31.9297 -86.8456 39° Northeast 460 529 37,000  Level Atlanta Center
06:09PM 32.0342 -86.7486 38° Northeast 465 535 37,000  Level Atlanta Center
06:10PM 32.1492 -86.6417 38° Northeast 474 545 37,000  Level Atlanta Center
06:11PM 32.2125 -86.5083 61° Northeast 463 533 37,000  Level Atlanta Center
06:12PM 32.2572 -86.3550 71° East 464 534 37,000  Level Atlanta Center
06:13PM 32.3017 -86.2061 71° East 471 542 37,000  Level Atlanta Center
06:14PM 32.3519 -86.0600 68° East 478 550 37,000  Level Atlanta Center
06:15PM 32.3981 -85.9158 69° East 473 544 37,000  Level Atlanta Center
06:16PM 32.4442 -85.7742 69° East 468 539 37,000  Level Atlanta Center
06:17PM 32.4942 -85.6222 69° East 469 540 37,000  Level Atlanta Center
06:18PM 32.5417 -85.4803 68° East 469 540 37,000  Level Atlanta Center
06:19PM 32.5914 -85.3331 68° East 469 540 37,000  Level Atlanta Center
06:20PM 32.6367 -85.1833 70° East 469 540 37,000  Level Atlanta Center
06:21PM 32.6797 -85.0283 72° East 474 545 37,000  Level Atlanta Center
06:22PM 32.7311 -84.8858 67° East 480 552 37,000  Level Atlanta Center
06:23PM 32.7736 -84.7406 71° East 473 544 37,000  Level Atlanta Center
06:24PM 32.8139 -84.6072 70° East 468 539 37,000  Level Atlanta Center
06:25PM 32.8625 -84.4567 69° East 473 544 37,000  Level Atlanta Center
06:26PM 32.9111 -84.2961 70° East 468 539 37,000  Level Atlanta Center
06:27PM 32.9572 -84.1503 69° East 468 539 37,000  Level Atlanta Center
06:28PM 33.0011 -84.0042 70° East 468 539 37,000  Level Atlanta Center
06:29PM 33.0469 -83.8556 70° East 468 539 37,000  Level Atlanta Center
06:30PM 33.0925 -83.7114 69° East 468 539 37,000  Level Atlanta Center
06:31PM 33.1339 -83.5675 71° East 468 539 37,000 -480 Level Atlanta Center
06:32PM 33.1789 -83.4208 70° East 463 533 36,100 -960 Descending Atlanta Center
06:33PM 33.2219 -83.2739 71° East 463 533 35,100 -900 Descending Atlanta Center
06:34PM 33.2650 -83.1319 70° East 463 533 34,400 -900 Descending Atlanta Center
06:35PM 33.3075 -82.9850 71° East 463 533 33,400 -720 Descending Atlanta Center
06:36PM 33.3500 -82.8403 71° East 463 533 33,000 -180 Descending Atlanta Center
06:38PM 33.4647 -82.6086 59° Northeast 430 495 33,000  Level Jacksonville Center
06:39PM 33.5311 -82.4839 57° Northeast 430 495 33,000  Level Jacksonville Center
06:40PM 33.5972 -82.3564 58° Northeast 435 501 33,000  Level Jacksonville Center
06:41PM 33.6739 -82.2136 57° Northeast 444 511 33,000  Level Jacksonville Center
06:42PM 33.7461 -82.0858 56° Northeast 454 522 33,000  Level Jacksonville Center
06:43PM 33.8142 -81.9553 58° Northeast 459 528 33,000  Level Jacksonville Center
06:44PM 33.8842 -81.8244 57° Northeast 459 528 33,000 -180 Level Jacksonville Center
06:45PM 33.9517 -81.6883 59° Northeast 459 528 32,700 -660 Descending Jacksonville Center
06:46PM 34.0192 -81.5597 58° Northeast 459 528 31,700 -1,020 Descending Jacksonville Center
06:47PM 34.0867 -81.4333 57° Northeast 454 522 30,700 -1,140 Descending Jacksonville Center
06:48PM 34.1539 -81.3042 58° Northeast 454 522 29,500 -1,260 Descending Jacksonville Center
06:49PM 34.2211 -81.1722 58° Northeast 459 528 28,200 -1,200 Descending Jacksonville Center
06:50PM 34.2758 -81.0633 59° Northeast 459 528 27,200 -600 Descending Jacksonville Center
06:51PM 34.3508 -80.9208 57° Northeast 464 534 27,000 -420 Descending Jacksonville Center
06:53PM 34.5003 -80.6275 58° Northeast 471 542 26,000 -720 Descending Jacksonville Center
06:55PM 34.6022 -80.4186 59° Northeast 478 550 24,500 -1,020 Descending Washington Center
06:56PM 34.6703 -80.2839 58° Northeast 473 544 23,500 -780 Descending Washington Center
06:57PM 34.7381 -80.1464 59° Northeast 473 544 23,000 -300 Descending Washington Center
06:58PM 34.8178 -80.0242 52° Northeast 467 537 23,000  Level Washington Center
06:59PM 34.9114 -79.9231 42° Northeast 449 517 23,000  Level Washington Center
07:00PM 35.0047 -79.8214 42° Northeast 449 517 23,000  Level Washington Center
07:01PM 35.0981 -79.7172 42° Northeast 449 517 23,000  Level Washington Center
07:02PM 35.1889 -79.6203 41° Northeast 442 509 23,000 -600 Level Washington Center
07:03PM 35.2769 -79.5458 35° Northeast 416 479 21,800 -1,740 Descending Washington Center
07:04PM 35.3622 -79.4889 29° Northeast 376 433 19,600 -2,340 Descending Washington Center
07:04PM 35.3922 -79.4700 27° Northeast 352 405 18,700 -2,460 Descending Washington Center
07:05PM 35.4478 -79.4267 32° Northeast 358 412 17,100 -2,220 Descending Washington Center
07:05PM 35.4797 -79.4103 23° Northeast 354 407 16,500 -2,100 Descending Washington Center
07:06PM 35.5164 -79.3689 43° Northeast 342 394 15,000 -1,980 Descending Washington Center
07:06PM 35.5406 -79.3342 49° Northeast 318 366 14,500 -2,040 Descending Washington Center
07:07PM 35.5736 -79.2769 55° Northeast 312 359 13,000 -1,920 Descending Washington Center
07:07PM 35.5956 -79.2397 54° Northeast 290 334 12,400 -1,560 Descending Washington Center
07:08PM 35.6219 -79.1950 54° Northeast 305 351 11,500 -1,440 Descending Washington Center
07:08PM 35.6483 -79.1500 54° Northeast 294 338 10,800 -1,140 Descending Washington Center
07:09PM 35.6681 -79.1153 55° Northeast 293 337 10,400 -1,140 Descending Washington Center
07:09PM 35.6922 -79.0778 52° Northeast 286 329 9,800 -1,140 Descending Washington Center
07:10PM 35.7164 -79.0356 55° Northeast 288 331 9,300 -1,020 Descending Washington Center
07:10PM 35.7361 -79.0031 53° Northeast 279 321 8,800 -1,020 Descending Washington Center
07:11PM 35.7600 -78.9656 52° Northeast 277 319 8,300 -840 Descending Washington Center
07:11PM 35.7797 -78.9333 53° Northeast 250 288 8,000 -300 Descending Washington Center
07:12PM 35.8056 -78.9036 43° Northeast 258 297 8,000  Level Washington Center
07:12PM 35.8289 -78.8892 27° Northeast 239 275 8,000 -360 Level Washington Center
07:13PM 35.8669 -78.8703 22° Northeast 238 274 7,700 -900 Descending Washington Center
07:13PM 35.8944 -78.8611 15° North 248 285 7,100 -1,380 Descending Washington Center
07:14PM 35.9439 -78.8067 42° Northeast 231 266 5,700 -1,200 Descending Washington Center
07:15PM 35.9828 -78.7619 43° Northeast 186 214 4,800 -1,200 Descending Washington Center
07:16PM 36.0111 -78.7119 55° Northeast 188 216 3,400 -1,200 Descending Washington Center
07:17PM 35.9656 -78.6972 165° South 162 186 2,500 -900 Descending Washington Center